Time;durP1;ratioP1;P1;durP2;ratioP2;P2;SDS_P1;SDS_P2;PMS_P1;PMS_P2;Temp;Humidity;BMP_temperature;BMP_pressure;BME280_temperature;BME280_humidity;BME280_pressure;Samples;Min_cycle;Max_cycle;Signal;HPM_P1;HPM_P2
2021/10/13 00:02:03;;;;;;;2.40;1.02;;;13.60;83.30;;;;;;5116479;28;20076;-69
2021/10/13 00:04:29;;;;;;;5.63;1.13;;;13.70;83.30;;;;;;5114966;27;20031;-69
2021/10/13 00:06:54;;;;;;;8.00;1.52;;;13.60;83.30;;;;;;5117646;27;20028;-70
2021/10/13 00:09:20;;;;;;;8.40;1.40;;;13.60;83.30;;;;;;5114871;28;20033;-69
2021/10/13 00:11:46;;;;;;;4.38;1.10;;;13.70;83.40;;;;;;5129285;27;20435;-70
2021/10/13 00:14:11;;;;;;;6.35;1.33;;;13.70;83.30;;;;;;5118362;27;20032;-69
2021/10/13 00:16:37;;;;;;;10.07;1.60;;;13.70;83.30;;;;;;5121571;27;20035;-69
2021/10/13 00:19:04;;;;;;;8.50;1.25;;;13.80;83.20;;;;;;5131818;27;20039;-70
2021/10/13 00:21:29;;;;;;;6.18;1.75;;;13.80;83.00;;;;;;5118258;27;20055;-69
2021/10/13 00:23:55;;;;;;;6.70;1.13;;;13.80;83.00;;;;;;5128714;27;20055;-69
2021/10/13 00:26:21;;;;;;;6.55;1.13;;;13.80;82.80;;;;;;5115615;27;20028;-69
2021/10/13 00:28:46;;;;;;;9.18;1.30;;;13.90;82.80;;;;;;5115622;27;20525;-69
2021/10/13 00:31:12;;;;;;;3.80;1.13;;;13.90;82.80;;;;;;5115313;28;20077;-69
2021/10/13 00:33:38;;;;;;;5.68;0.85;;;13.90;82.90;;;;;;5126837;27;20030;-69
2021/10/13 00:36:03;;;;;;;4.40;1.15;;;13.90;83.00;;;;;;5117044;27;20363;-70
2021/10/13 00:38:29;;;;;;;5.55;1.25;;;13.90;83.00;;;;;;5114889;27;20107;-69
2021/10/13 00:40:55;;;;;;;6.28;1.00;;;13.80;83.00;;;;;;5116999;27;20027;-69
2021/10/13 00:43:20;;;;;;;5.72;1.13;;;13.90;83.00;;;;;;5122506;27;20102;-69
2021/10/13 00:45:46;;;;;;;9.85;1.38;;;13.90;82.90;;;;;;5116026;27;20041;-69
2021/10/13 00:48:11;;;;;;;12.05;1.50;;;13.90;82.80;;;;;;5109306;27;20020;-69
2021/10/13 00:50:38;;;;;;;5.90;1.35;;;13.80;83.30;;;;;;5115636;27;20028;-69
2021/10/13 00:53:03;;;;;;;3.83;0.90;;;13.90;82.90;;;;;;5116949;27;20036;-69
2021/10/13 00:55:30;;;;;;;12.63;1.70;;;13.90;83.70;;;;;;5123122;27;20031;-68
2021/10/13 00:57:56;;;;;;;3.75;1.00;;;13.80;83.20;;;;;;5126590;27;20070;-68
2021/10/13 01:00:23;;;;;;;6.53;1.20;;;13.80;83.50;;;;;;5125136;27;20077;-68
2021/10/13 01:03:07;;;;;;;8.98;1.70;;;13.80;83.60;;;;;;5115412;27;20028;-67
2021/10/13 01:05:52;;;;;;;6.05;1.13;;;13.70;83.70;;;;;;5126431;27;20517;-70
2021/10/13 01:08:44;;;;;;;13.95;1.55;;;13.80;83.80;;;;;;5113949;27;20413;-69
2021/10/13 01:11:19;;;;;;;4.15;1.35;;;13.70;83.90;;;;;;5063493;27;20031;-68
2021/10/13 01:13:59;;;;;;;8.27;1.15;;;13.70;83.90;;;;;;5130253;27;20035;-69
2021/10/13 01:16:40;;;;;;;9.30;1.65;;;13.70;83.90;;;;;;5125288;27;20386;-68
2021/10/13 01:19:19;;;;;;;4.13;1.35;;;13.70;83.70;;;;;;5113081;28;20054;-68
2021/10/13 01:22:06;;;;;;;5.40;1.08;;;13.80;83.80;;;;;;5123769;27;20451;-68
2021/10/13 01:25:06;;;;;;;9.65;1.30;;;13.80;83.70;;;;;;5109292;27;20830;-75
2021/10/13 01:28:12;;;;;;;8.98;1.23;;;13.80;83.60;;;;;;5119930;27;20473;-69
2021/10/13 01:30:51;;;;;;;8.57;1.30;;;13.90;83.60;;;;;;5015186;28;20145;-69
2021/10/13 01:33:32;;;;;;;6.78;1.40;;;13.90;83.50;;;;;;5014606;28;20068;-69
2021/10/13 01:36:02;;;;;;;9.50;1.73;;;13.90;83.60;;;;;;5080086;28;20486;-69
2021/10/13 01:38:31;;;;;;;10.27;1.33;;;13.90;83.50;;;;;;5129837;27;20071;-69
2021/10/13 01:41:00;;;;;;;9.68;1.30;;;13.90;83.50;;;;;;5125208;27;20081;-69
2021/10/13 01:43:26;;;;;;;5.20;1.10;;;13.90;83.50;;;;;;5130925;27;20389;-69
2021/10/13 01:45:54;;;;;;;12.90;1.35;;;14.00;83.60;;;;;;5130688;27;20087;-69
2021/10/13 01:48:20;;;;;;;5.00;1.10;;;13.90;83.50;;;;;;5126092;27;20431;-69
2021/10/13 01:50:48;;;;;;;5.88;0.93;;;13.90;83.60;;;;;;5132404;27;20027;-69
2021/10/13 01:53:17;;;;;;;7.45;1.35;;;13.90;83.70;;;;;;5125673;27;20031;-69
2021/10/13 01:55:45;;;;;;;6.82;1.23;;;13.90;83.80;;;;;;5130916;27;20027;-69
2021/10/13 01:58:11;;;;;;;7.43;1.40;;;13.90;83.80;;;;;;5129160;27;20089;-69
2021/10/13 02:00:38;;;;;;;4.50;1.27;;;13.90;83.90;;;;;;5102928;27;20024;-69
2021/10/13 02:03:07;;;;;;;4.32;1.10;;;13.90;84.00;;;;;;5130120;27;20039;-69
2021/10/13 02:05:35;;;;;;;6.35;1.30;;;13.90;84.00;;;;;;5121628;27;20112;-69
2021/10/13 03:16:15;;;;;;;5.68;1.20;;;13.40;84.40;;;;;;5114198;27;20074;-69
2021/10/13 03:18:42;;;;;;;10.90;1.25;;;13.40;84.40;;;;;;5100634;28;20088;-69
2021/10/13 03:21:09;;;;;;;7.45;1.25;;;13.30;84.40;;;;;;5108248;28;20031;-69
2021/10/13 03:23:35;;;;;;;8.73;1.20;;;13.30;84.50;;;;;;5098610;28;20475;-69
2021/10/13 03:26:09;;;;;;;4.85;1.15;;;13.30;84.50;;;;;;5098231;28;20034;-69
2021/10/13 03:28:38;;;;;;;8.18;2.28;;;13.30;84.40;;;;;;5095315;28;20056;-69
2021/10/13 03:31:03;;;;;;;4.53;1.38;;;13.30;84.60;;;;;;5111622;28;20020;-69
2021/10/13 03:33:29;;;;;;;6.03;1.13;;;13.30;84.60;;;;;;5108365;28;20035;-69
2021/10/13 03:35:55;;;;;;;5.13;1.20;;;13.30;84.60;;;;;;5109714;28;20138;-69
2021/10/13 03:38:21;;;;;;;6.05;1.10;;;13.20;84.50;;;;;;5106423;28;20391;-69
2021/10/13 03:40:47;;;;;;;6.85;1.60;;;13.20;84.50;;;;;;5112453;28;20497;-69
2021/10/13 03:43:13;;;;;;;6.47;1.00;;;13.30;84.40;;;;;;5112796;28;20114;-69
2021/10/13 03:45:38;;;;;;;7.68;1.20;;;13.20;84.30;;;;;;5110530;28;20424;-69
2021/10/13 03:48:04;;;;;;;10.05;1.52;;;13.30;84.30;;;;;;5112595;28;20032;-69
2021/10/13 03:50:30;;;;;;;7.30;1.23;;;13.30;84.30;;;;;;5112725;28;20032;-69
2021/10/13 03:52:56;;;;;;;10.27;1.42;;;13.20;84.40;;;;;;5112034;28;20459;-69
2021/10/13 03:55:22;;;;;;;6.28;1.33;;;13.20;84.60;;;;;;5112223;28;20467;-69
2021/10/13 03:57:48;;;;;;;5.85;1.10;;;13.30;84.90;;;;;;5112031;28;20032;-69
2021/10/13 04:00:17;;;;;;;8.00;1.33;;;13.30;85.10;;;;;;5112178;28;20129;-69
2021/10/13 04:02:43;;;;;;;3.95;0.90;;;13.30;85.20;;;;;;5112488;28;20023;-69
2021/10/13 04:05:09;;;;;;;8.27;1.08;;;13.20;85.10;;;;;;5111814;28;20040;-69
2021/10/13 04:07:36;;;;;;;3.42;0.80;;;13.20;85.10;;;;;;5112505;28;20050;-69
2021/10/13 04:10:05;;;;;;;7.88;1.10;;;13.20;85.10;;;;;;5098753;28;20031;-69
2021/10/13 04:12:30;;;;;;;2.85;0.93;;;13.30;85.10;;;;;;5094948;28;20031;-69
2021/10/13 04:14:56;;;;;;;6.65;0.88;;;13.30;85.10;;;;;;5115846;28;20038;-69
2021/10/13 04:17:22;;;;;;;7.85;1.00;;;13.30;85.00;;;;;;5104010;28;20128;-69
2021/10/13 04:19:50;;;;;;;4.38;1.08;;;13.30;84.90;;;;;;5094545;28;20399;-69
2021/10/13 04:22:16;;;;;;;4.32;1.05;;;13.30;84.90;;;;;;5095789;28;20119;-69
2021/10/13 04:24:45;;;;;;;5.70;1.05;;;13.30;84.80;;;;;;5095324;28;20138;-69
2021/10/13 04:27:10;;;;;;;4.32;1.05;;;13.30;84.80;;;;;;5094569;28;20121;-69
2021/10/13 04:29:36;;;;;;;2.60;0.65;;;13.40;84.90;;;;;;5115888;28;20027;-69
2021/10/13 04:32:02;;;;;;;8.95;1.55;;;13.40;84.80;;;;;;5115518;28;20027;-69
2021/10/13 04:34:27;;;;;;;5.82;1.50;;;13.40;85.30;;;;;;5115296;28;20124;-69
2021/10/13 04:36:53;;;;;;;5.32;1.33;;;13.40;85.80;;;;;;5114210;28;20030;-69
2021/10/13 04:39:18;;;;;;;3.67;0.93;;;13.30;86.10;;;;;;5115999;28;20036;-69
2021/10/13 04:41:44;;;;;;;5.30;0.85;;;13.30;86.10;;;;;;5114935;28;20536;-69
2021/10/13 04:44:10;;;;;;;3.92;1.00;;;13.30;86.20;;;;;;5115694;28;20036;-69
2021/10/13 04:46:35;;;;;;;3.58;0.80;;;13.30;86.10;;;;;;5115380;28;20032;-69
2021/10/13 04:49:01;;;;;;;6.03;0.90;;;13.30;86.10;;;;;;5115035;28;20031;-69
2021/10/13 04:51:27;;;;;;;3.53;0.90;;;13.30;86.10;;;;;;5115140;28;20072;-69
2021/10/13 04:53:52;;;;;;;2.03;0.70;;;13.20;86.20;;;;;;5115504;28;20390;-68
2021/10/13 04:56:18;;;;;;;4.00;1.10;;;13.30;86.40;;;;;;5102197;28;20020;-69
2021/10/13 04:58:43;;;;;;;6.53;0.98;;;13.20;86.50;;;;;;5115336;28;20039;-69
2021/10/13 05:01:09;;;;;;;4.22;0.98;;;13.30;86.70;;;;;;5115046;28;20032;-69
2021/10/13 05:03:35;;;;;;;8.02;1.83;;;13.40;86.80;;;;;;5114667;28;20028;-69
2021/10/13 05:06:00;;;;;;;3.28;1.10;;;13.40;86.90;;;;;;5115473;28;20027;-69
2021/10/13 05:08:26;;;;;;;6.55;1.10;;;13.40;86.80;;;;;;5114702;27;20405;-69
2021/10/13 05:10:52;;;;;;;10.77;1.40;;;13.40;86.60;;;;;;5132618;27;20470;-69
2021/10/13 05:13:18;;;;;;;4.93;1.05;;;13.50;86.60;;;;;;5135125;27;20108;-71
2021/10/13 05:15:44;;;;;;;2.60;0.85;;;13.50;86.30;;;;;;5116896;27;20050;-71
2021/10/13 05:18:10;;;;;;;2.45;0.82;;;13.50;86.50;;;;;;5133986;27;20482;-69
2021/10/13 05:20:37;;;;;;;11.88;1.02;;;13.40;86.20;;;;;;5121331;27;20053;-69
2021/10/13 05:23:03;;;;;;;5.00;1.05;;;13.40;85.90;;;;;;5121619;27;20023;-69
2021/10/13 05:25:30;;;;;;;5.57;1.05;;;13.40;86.20;;;;;;5131910;27;20035;-69
2021/10/13 05:27:56;;;;;;;4.55;1.40;;;13.40;86.80;;;;;;5126672;27;20027;-69
2021/10/13 05:30:21;;;;;;;6.13;1.23;;;13.40;87.10;;;;;;5124000;27;20039;-69
2021/10/13 05:32:47;;;;;;;7.97;0.90;;;13.40;87.30;;;;;;5120844;27;20450;-70
2021/10/13 05:35:13;;;;;;;8.00;1.27;;;13.50;87.60;;;;;;5121101;27;20061;-69
2021/10/13 05:37:39;;;;;;;4.40;0.85;;;13.50;87.60;;;;;;5115205;27;20070;-69
2021/10/13 05:40:06;;;;;;;6.20;2.10;;;13.50;87.50;;;;;;5122887;27;20058;-69
2021/10/13 05:42:31;;;;;;;5.38;1.50;;;13.60;87.60;;;;;;5130162;27;20104;-69
2021/10/13 05:44:57;;;;;;;7.32;1.00;;;13.50;87.50;;;;;;5130940;27;20118;-70
2021/10/13 05:47:23;;;;;;;5.13;1.05;;;13.50;87.50;;;;;;5124695;27;20059;-68
2021/10/13 05:49:49;;;;;;;7.47;1.13;;;13.60;87.30;;;;;;5115547;27;20083;-68
2021/10/13 05:52:16;;;;;;;3.85;0.98;;;13.60;87.10;;;;;;5127942;27;20031;-69
2021/10/13 05:54:42;;;;;;;12.68;1.45;;;13.50;86.90;;;;;;5128252;27;20092;-78
2021/10/13 05:57:08;;;;;;;4.18;0.90;;;13.50;86.90;;;;;;5125810;27;20028;-79
2021/10/13 05:59:36;;;;;;;3.90;1.20;;;13.50;86.60;;;;;;5118951;27;20035;-70
2021/10/13 06:02:02;;;;;;;5.72;1.13;;;13.40;86.40;;;;;;5121073;27;20039;-69
2021/10/13 06:04:27;;;;;;;5.72;1.08;;;13.40;86.40;;;;;;5114678;27;20035;-69
2021/10/13 06:06:53;;;;;;;3.90;0.85;;;13.30;86.40;;;;;;5118201;27;20030;-69
2021/10/13 06:09:19;;;;;;;4.90;1.00;;;13.40;86.20;;;;;;5114154;27;20429;-68
2021/10/13 06:11:44;;;;;;;6.75;1.05;;;13.30;86.00;;;;;;5122609;27;20015;-69
2021/10/13 06:14:10;;;;;;;5.75;1.20;;;13.20;85.90;;;;;;5122923;27;20389;-68
2021/10/13 06:16:36;;;;;;;3.55;0.80;;;13.20;85.70;;;;;;5124521;27;20027;-71
2021/10/13 06:19:01;;;;;;;3.30;0.98;;;13.10;85.60;;;;;;5129166;27;20104;-71
2021/10/13 06:21:27;;;;;;;5.65;1.10;;;13.10;85.60;;;;;;5128966;27;20024;-78
2021/10/13 06:23:53;;;;;;;3.42;1.00;;;13.00;85.60;;;;;;5132586;27;20035;-69
2021/10/13 06:26:20;;;;;;;4.88;1.00;;;13.00;85.60;;;;;;5122958;27;20028;-69
2021/10/13 06:28:47;;;;;;;3.88;1.08;;;12.90;85.60;;;;;;5128291;27;20035;-70
2021/10/13 06:31:12;;;;;;;5.32;1.20;;;13.00;85.80;;;;;;5117728;27;20024;-70
2021/10/13 06:33:38;;;;;;;5.70;1.33;;;13.00;85.90;;;;;;5120819;27;20027;-65
2021/10/13 06:36:05;;;;;;;8.82;1.30;;;13.00;86.00;;;;;;5114253;27;20503;-70
2021/10/13 06:38:31;;;;;;;7.22;1.25;;;13.00;86.00;;;;;;5123988;27;20035;-70
2021/10/13 06:40:58;;;;;;;3.53;0.93;;;13.00;86.00;;;;;;5120680;27;20034;-70
2021/10/13 06:43:24;;;;;;;4.15;1.20;;;13.00;85.90;;;;;;5132049;27;20055;-70
2021/10/13 06:45:50;;;;;;;6.57;1.00;;;13.00;85.70;;;;;;5132634;27;20051;-70
2021/10/13 06:48:17;;;;;;;2.67;1.05;;;13.00;85.80;;;;;;5131562;27;20488;-70
2021/10/13 06:50:43;;;;;;;5.18;1.83;;;12.90;85.70;;;;;;5132164;27;20393;-70
2021/10/13 06:53:09;;;;;;;2.50;1.00;;;12.90;85.80;;;;;;5126802;27;20023;-70
2021/10/13 06:55:35;;;;;;;7.20;2.45;;;12.90;85.80;;;;;;5120036;27;20028;-68
2021/10/13 06:58:00;;;;;;;3.05;0.90;;;12.90;85.80;;;;;;5120738;27;20038;-70
2021/10/13 07:00:26;;;;;;;6.10;1.55;;;12.90;85.80;;;;;;5115800;27;20038;-70
2021/10/13 07:02:54;;;;;;;2.38;1.00;;;12.90;86.50;;;;;;5122021;27;20027;-70
2021/10/13 07:05:20;;;;;;;4.13;1.17;;;12.90;85.90;;;;;;5124308;27;20019;-70
2021/10/13 07:07:48;;;;;;;3.88;1.13;;;12.80;85.90;;;;;;5119769;27;20023;-70
2021/10/13 07:10:16;;;;;;;7.95;1.10;;;12.80;85.90;;;;;;5120068;27;20029;-70
2021/10/13 07:12:41;;;;;;;3.13;1.20;;;12.80;86.10;;;;;;5118414;27;20585;-70
2021/10/13 07:15:08;;;;;;;10.27;1.75;;;12.80;86.50;;;;;;5118040;27;20425;-70
2021/10/13 07:17:34;;;;;;;4.50;1.38;;;12.80;86.80;;;;;;5123098;27;20066;-69
2021/10/13 07:20:01;;;;;;;6.53;1.10;;;12.80;87.60;;;;;;5123013;28;20565;-69
2021/10/13 07:22:27;;;;;;;3.65;0.95;;;12.80;87.40;;;;;;5114337;28;20031;-70
2021/10/13 07:24:52;;;;;;;9.27;1.08;;;12.80;87.60;;;;;;5118391;28;20027;-70
2021/10/13 07:27:19;;;;;;;8.88;1.13;;;12.80;87.70;;;;;;5120107;28;20467;-69
2021/10/13 07:29:46;;;;;;;3.22;0.60;;;12.80;87.50;;;;;;5121183;28;20462;-69
2021/10/13 07:32:11;;;;;;;6.22;0.98;;;12.90;87.50;;;;;;5119977;28;20028;-69
2021/10/13 07:34:37;;;;;;;4.28;1.50;;;12.90;87.70;;;;;;5102127;28;20096;-68
2021/10/13 07:37:04;;;;;;;0.40;0.40;;;12.90;87.60;;;;;;5102679;28;20028;-69
2021/10/13 07:39:30;;;;;;;4.97;1.35;;;13.00;87.40;;;;;;5124811;28;20402;-69
2021/10/13 07:41:56;;;;;;;0.90;0.32;;;13.00;87.10;;;;;;5111513;28;20110;-68
2021/10/13 07:44:22;;;;;;;1.95;0.57;;;13.00;86.90;;;;;;5122458;28;20103;-68
2021/10/13 07:46:48;;;;;;;0.20;0.20;;;13.00;86.60;;;;;;5122311;27;20431;-69
2021/10/13 07:49:14;;;;;;;0.45;0.30;;;13.10;86.50;;;;;;5115689;27;20524;-68
2021/10/13 07:51:40;;;;;;;0.32;0.32;;;13.10;86.30;;;;;;5111279;28;20019;-68
2021/10/13 07:54:06;;;;;;;1.73;0.32;;;13.10;86.30;;;;;;5111664;27;20036;-68
2021/10/13 07:56:32;;;;;;;2.80;0.55;;;13.10;86.50;;;;;;5123567;27;20098;-69
2021/10/13 07:58:57;;;;;;;2.15;0.60;;;13.10;86.30;;;;;;5109788;28;20134;-69
2021/10/13 08:01:24;;;;;;;2.50;0.77;;;13.10;86.20;;;;;;5111078;27;20035;-69
2021/10/13 08:03:49;;;;;;;2.83;0.73;;;13.20;86.30;;;;;;5125127;27;20035;-68
2021/10/13 08:06:15;;;;;;;3.10;1.10;;;13.20;86.20;;;;;;5126257;27;20468;-68
2021/10/13 08:08:41;;;;;;;6.20;1.00;;;13.20;86.20;;;;;;5129928;27;20126;-68
2021/10/13 08:11:07;;;;;;;4.07;1.27;;;13.20;86.40;;;;;;5122213;27;20027;-68
2021/10/13 08:13:33;;;;;;;4.10;0.57;;;13.20;86.80;;;;;;5108278;27;20024;-69
2021/10/13 08:16:02;;;;;;;2.00;0.60;;;13.20;86.80;;;;;;5104881;27;20465;-68
2021/10/13 08:18:28;;;;;;;5.30;0.75;;;13.20;86.90;;;;;;5111113;27;20406;-68
2021/10/13 08:20:53;;;;;;;3.08;0.68;;;13.30;87.40;;;;;;5135488;27;20027;-68
2021/10/13 08:23:20;;;;;;;3.80;0.85;;;13.30;87.30;;;;;;5120327;27;20046;-68
2021/10/13 08:25:46;;;;;;;4.97;0.60;;;13.30;87.70;;;;;;5099751;28;20028;-68
2021/10/13 08:28:12;;;;;;;4.43;0.80;;;13.40;88.10;;;;;;5115443;28;20072;-68
2021/10/13 08:30:38;;;;;;;3.45;0.95;;;13.40;88.20;;;;;;5124005;27;20098;-68
2021/10/13 08:33:04;;;;;;;4.13;0.75;;;13.50;88.40;;;;;;5124474;27;20031;-68
2021/10/13 08:35:30;;;;;;;4.68;0.93;;;13.50;88.50;;;;;;5113857;27;20035;-68
2021/10/13 08:37:56;;;;;;;3.30;0.60;;;13.50;88.60;;;;;;5102943;27;20119;-68
2021/10/13 08:40:22;;;;;;;5.05;0.85;;;13.50;88.80;;;;;;5124578;27;20035;-68
2021/10/13 08:42:55;;;;;;;4.95;0.98;;;13.60;89.00;;;;;;5115761;27;21117;-68
2021/10/13 08:45:23;;;;;;;4.10;1.05;;;13.60;88.90;;;;;;5125234;27;20035;-68
2021/10/13 08:47:49;;;;;;;3.85;0.95;;;13.70;89.10;;;;;;5114871;27;20052;-68
2021/10/13 08:50:15;;;;;;;3.55;1.02;;;13.70;89.40;;;;;;5102420;28;20051;-68
2021/10/13 08:52:40;;;;;;;1.63;0.60;;;13.70;89.50;;;;;;5126574;27;20073;-68
2021/10/13 08:55:08;;;;;;;4.38;1.15;;;13.70;89.70;;;;;;5116477;27;20062;-68
2021/10/13 08:57:34;;;;;;;6.38;0.90;;;13.80;89.90;;;;;;5122394;27;20077;-68
2021/10/13 08:59:59;;;;;;;4.88;1.10;;;13.80;89.80;;;;;;5101601;28;20461;-68
2021/10/13 09:02:44;;;;;;;5.13;1.00;;;13.90;90.00;;;;;;5114068;28;20178;-68
2021/10/13 09:05:15;;;;;;;4.72;1.00;;;13.90;90.10;;;;;;5115513;27;20023;-69
2021/10/13 09:07:50;;;;;;;5.38;0.75;;;14.00;90.40;;;;;;5124162;27;20035;-68
2021/10/13 09:10:28;;;;;;;8.07;1.92;;;14.00;90.50;;;;;;5128372;27;20063;-68
2021/10/13 09:12:54;;;;;;;8.18;0.95;;;14.00;90.20;;;;;;5133885;27;20031;-68
2021/10/13 09:15:27;;;;;;;5.10;1.00;;;14.10;90.10;;;;;;5122659;27;20027;-69
2021/10/13 09:18:00;;;;;;;8.10;1.20;;;14.10;90.00;;;;;;5121005;27;20087;-68
2021/10/13 09:20:28;;;;;;;4.85;0.95;;;14.10;89.90;;;;;;5117601;27;20040;-69
2021/10/13 09:23:07;;;;;;;3.30;0.70;;;14.20;90.00;;;;;;5121406;27;20085;-69
2021/10/13 09:25:35;;;;;;;3.90;0.60;;;14.30;90.10;;;;;;5108241;28;20032;-68
2021/10/13 09:28:02;;;;;;;5.82;0.50;;;14.40;89.60;;;;;;5117747;27;20031;-68
2021/10/13 09:30:40;;;;;;;5.97;1.02;;;14.40;89.30;;;;;;5113273;27;20032;-69
2021/10/13 09:33:17;;;;;;;5.97;1.02;;;14.40;88.90;;;;;;5124737;27;20042;-68
2021/10/13 09:35:50;;;;;;;4.85;1.02;;;14.40;89.20;;;;;;5112027;27;20034;-68
2021/10/13 09:38:17;;;;;;;5.68;0.50;;;14.50;88.80;;;;;;5123818;27;20393;-68
2021/10/13 09:40:43;;;;;;;1.95;0.65;;;14.50;88.50;;;;;;5114203;27;20046;-69
2021/10/13 09:43:29;;;;;;;5.57;1.00;;;14.50;88.40;;;;;;5119231;27;20122;-68
2021/10/13 09:46:12;;;;;;;2.38;0.85;;;14.50;88.40;;;;;;5119176;27;20140;-67
2021/10/13 09:48:56;;;;;;;4.75;0.60;;;14.60;88.60;;;;;;5122229;27;20036;-67
2021/10/13 09:51:23;;;;;;;4.15;0.80;;;14.60;88.60;;;;;;5106552;27;20031;-68
2021/10/13 09:53:51;;;;;;;3.13;1.00;;;14.60;88.70;;;;;;5118262;27;20016;-68
2021/10/13 09:56:38;;;;;;;3.83;0.90;;;14.70;88.90;;;;;;5122275;27;20058;-68
2021/10/13 09:59:12;;;;;;;3.60;0.75;;;14.70;89.20;;;;;;5109246;27;20040;-68
2021/10/13 10:01:40;;;;;;;2.10;0.90;;;14.70;89.40;;;;;;5113785;27;20031;-68
2021/10/13 10:04:11;;;;;;;1.58;0.70;;;14.70;89.60;;;;;;5096406;28;20031;-68
2021/10/13 10:06:37;;;;;;;3.00;0.98;;;14.80;89.40;;;;;;5113132;28;20023;-68
2021/10/13 10:09:04;;;;;;;4.30;0.95;;;14.80;89.40;;;;;;5125308;27;20039;-72
2021/10/13 10:11:34;;;;;;;4.30;0.93;;;14.80;89.40;;;;;;5105839;28;20502;-68
2021/10/13 10:14:03;;;;;;;6.13;0.73;;;14.80;89.00;;;;;;5116171;27;20032;-70
2021/10/13 10:16:36;;;;;;;5.13;1.00;;;14.80;88.30;;;;;;5130570;27;20035;-67
2021/10/13 10:19:19;;;;;;;;;;;14.80;88.30;;;;;;5125950;27;20173;-68
2021/10/13 10:21:52;;;;;;;1.58;0.65;;;14.80;88.10;;;;;;5112449;28;19914;-68
2021/10/13 10:24:29;;;;;;;3.60;0.80;;;14.80;88.50;;;;;;5131839;27;20024;-68
2021/10/13 10:27:21;;;;;;;5.35;0.73;;;14.80;88.70;;;;;;5116558;27;20023;-70
2021/10/13 10:30:01;;;;;;;5.40;1.10;;;14.80;89.00;;;;;;5102779;28;20019;-68
2021/10/13 10:32:27;;;;;;;9.10;1.77;;;14.90;88.90;;;;;;5115306;27;20027;-67
2021/10/13 10:35:05;;;;;;;3.90;0.60;;;14.90;87.90;;;;;;5110446;27;20119;-67
2021/10/13 10:37:44;;;;;;;4.07;1.15;;;14.90;87.30;;;;;;5109878;28;20019;-68
2021/10/13 10:40:22;;;;;;;5.45;0.80;;;15.00;86.80;;;;;;5120033;27;20096;-70
2021/10/13 10:42:54;;;;;;;7.97;1.48;;;15.00;86.80;;;;;;5124895;27;20028;-69
2021/10/13 10:45:31;;;;;;;6.25;1.00;;;15.10;86.40;;;;;;5105014;28;20061;-69
2021/10/13 10:48:00;;;;;;;9.30;1.00;;;15.10;85.90;;;;;;5114529;27;20505;-69
2021/10/13 10:50:44;;;;;;;5.35;1.00;;;15.10;85.60;;;;;;5131716;27;20035;-69
2021/10/13 10:53:12;;;;;;;3.25;0.82;;;15.10;85.60;;;;;;5095406;28;20032;-69
2021/10/13 10:55:40;;;;;;;7.03;0.95;;;15.20;85.30;;;;;;5110190;28;20532;-69
2021/10/13 10:58:13;;;;;;;5.63;1.15;;;15.20;84.10;;;;;;5118694;27;20052;-69
2021/10/13 11:00:40;;;;;;;5.63;0.60;;;15.30;84.40;;;;;;5111697;27;20085;-68
2021/10/13 11:03:23;;;;;;;8.68;1.98;;;15.30;84.40;;;;;;5125763;27;20110;-68
2021/10/13 11:05:49;;;;;;;3.53;1.00;;;15.30;84.20;;;;;;5113051;27;20055;-70
2021/10/13 11:08:15;;;;;;;11.27;1.20;;;15.30;83.90;;;;;;5123247;27;20359;-69
2021/10/13 11:10:42;;;;;;;1.20;0.50;;;15.40;84.10;;;;;;5121487;27;20032;-73
2021/10/13 11:13:08;;;;;;;4.38;1.00;;;15.40;84.40;;;;;;5117533;27;20404;-69
2021/10/13 11:15:36;;;;;;;7.18;1.00;;;15.50;84.40;;;;;;5118869;27;20467;-70
2021/10/13 11:18:18;;;;;;;3.72;0.55;;;15.50;84.20;;;;;;5115041;27;20051;-69
2021/10/13 11:20:45;;;;;;;3.28;0.95;;;15.50;83.60;;;;;;5113269;28;20032;-69
2021/10/13 11:23:11;;;;;;;5.00;1.10;;;15.60;83.10;;;;;;5107191;27;20054;-69
2021/10/13 11:25:39;;;;;;;4.60;0.73;;;15.60;82.30;;;;;;5111974;28;20038;-70
2021/10/13 11:28:23;;;;;;;7.10;1.08;;;15.60;82.10;;;;;;5113503;28;20780;-69
2021/10/13 11:30:50;;;;;;;4.50;1.05;;;15.60;82.00;;;;;;5112889;28;20034;-69
2021/10/13 11:33:18;;;;;;;5.95;0.95;;;15.60;82.00;;;;;;5106854;28;20425;-70
2021/10/13 11:35:44;;;;;;;2.13;0.82;;;15.60;81.70;;;;;;5116721;28;20031;-69
2021/10/13 11:38:15;;;;;;;4.13;0.82;;;15.60;82.00;;;;;;5119678;28;20083;-70
2021/10/13 11:40:40;;;;;;;5.38;1.05;;;15.70;82.20;;;;;;5097775;28;20031;-69
2021/10/13 11:43:09;;;;;;;4.82;1.27;;;15.70;82.30;;;;;;5108960;28;20161;-69
2021/10/13 11:45:34;;;;;;;7.85;1.20;;;15.80;82.20;;;;;;5126986;28;20045;-69
2021/10/13 11:48:02;;;;;;;2.25;1.10;;;15.80;82.10;;;;;;5117608;28;20092;-69
2021/10/13 11:50:31;;;;;;;2.38;1.00;;;15.80;82.30;;;;;;5096490;28;20031;-68
2021/10/13 11:52:59;;;;;;;2.88;0.80;;;15.90;81.90;;;;;;5119791;28;20047;-68
2021/10/13 11:55:32;;;;;;;4.38;1.40;;;15.90;82.20;;;;;;5115526;28;20493;-69
2021/10/13 11:58:02;;;;;;;;;;;16.00;82.20;;;;;;5115887;28;20035;-69
2021/10/13 12:00:45;;;;;;;4.70;1.00;;;16.00;82.50;;;;;;5115936;28;19926;-69
2021/10/13 12:03:13;;;;;;;5.38;0.82;;;16.00;82.30;;;;;;5113184;28;20170;-69
2021/10/13 12:05:42;;;;;;;4.65;0.93;;;16.00;82.70;;;;;;5118788;28;20079;-69
2021/10/13 12:08:10;;;;;;;11.35;3.53;;;16.00;83.00;;;;;;5113231;28;20035;-69
2021/10/13 12:10:49;;;;;;;3.95;0.85;;;16.00;82.90;;;;;;5110302;28;20020;-69
2021/10/13 12:13:29;;;;;;;5.78;1.30;;;16.00;82.90;;;;;;5110210;28;20428;-69
2021/10/13 12:15:59;;;;;;;5.93;1.15;;;16.00;82.70;;;;;;5109730;28;20035;-69
2021/10/13 12:18:27;;;;;;;5.95;1.10;;;16.10;82.40;;;;;;5110101;28;20071;-69
2021/10/13 12:21:08;;;;;;;12.35;1.33;;;16.20;81.60;;;;;;5111645;28;20424;-69
2021/10/13 12:23:40;;;;;;;7.68;1.60;;;16.10;80.90;;;;;;5106292;28;20027;-69
2021/10/13 12:26:15;;;;;;;6.90;1.00;;;16.10;79.90;;;;;;5116046;28;20363;-69
2021/10/13 12:28:40;;;;;;;7.53;1.58;;;16.20;79.70;;;;;;5114440;28;20058;-69
2021/10/13 12:31:09;;;;;;;6.88;1.10;;;16.20;79.70;;;;;;5113689;28;20035;-69
2021/10/13 12:34:04;;;;;;;2.83;1.10;;;16.20;79.00;;;;;;5113449;27;20374;-69
2021/10/13 12:36:31;;;;;;;5.22;1.20;;;16.30;79.70;;;;;;5114445;27;20039;-70
2021/10/13 12:39:11;;;;;;;9.52;1.08;;;16.30;79.70;;;;;;5124074;27;20053;-69
2021/10/13 12:41:46;;;;;;;9.98;1.25;;;16.30;79.70;;;;;;5113105;27;20115;-70
2021/10/13 12:44:25;;;;;;;11.23;1.45;;;16.30;80.30;;;;;;5120375;27;20028;-69
2021/10/13 12:47:05;;;;;;;9.07;1.50;;;16.30;80.50;;;;;;5116644;27;20386;-69
2021/10/13 12:49:38;;;;;;;6.72;1.67;;;16.30;80.10;;;;;;5112193;27;20378;-69
2021/10/13 12:52:12;;;;;;;6.20;1.20;;;16.30;80.00;;;;;;5112346;27;20031;-69
2021/10/13 12:54:41;;;;;;;7.38;1.33;;;16.30;79.80;;;;;;5118398;27;20027;-69
2021/10/13 12:57:12;;;;;;;7.03;1.65;;;16.30;80.00;;;;;;5124706;27;20221;-69
2021/10/13 12:59:38;;;;;;;5.63;1.35;;;16.40;79.90;;;;;;5116678;27;20050;-69
2021/10/13 13:02:04;;;;;;;7.43;2.05;;;16.40;79.80;;;;;;5120396;27;20359;-69
2021/10/13 13:04:30;;;;;;;8.65;1.33;;;16.40;79.60;;;;;;5116592;27;20027;-69
2021/10/13 13:06:57;;;;;;;4.82;1.10;;;16.40;79.90;;;;;;5116652;27;20032;-69
2021/10/13 13:09:22;;;;;;;5.72;1.52;;;16.30;79.70;;;;;;5122664;27;20023;-70
2021/10/13 13:11:48;;;;;;;8.27;1.50;;;16.40;79.60;;;;;;5114729;27;20024;-69
2021/10/13 13:14:14;;;;;;;7.43;1.38;;;16.40;79.70;;;;;;5118167;27;20027;-69
2021/10/13 13:16:41;;;;;;;7.78;1.40;;;16.40;79.30;;;;;;5117899;27;20484;-68
2021/10/13 13:19:07;;;;;;;6.30;1.27;;;16.40;79.30;;;;;;5112257;27;20415;-69
2021/10/13 13:21:34;;;;;;;13.38;1.40;;;16.40;79.40;;;;;;5108687;27;20028;-69
2021/10/13 13:24:00;;;;;;;7.43;1.55;;;16.40;79.70;;;;;;5126551;27;20084;-69
2021/10/13 13:26:25;;;;;;;11.65;1.40;;;16.40;79.50;;;;;;5104326;27;20028;-71
2021/10/13 13:28:51;;;;;;;10.55;1.60;;;16.40;79.40;;;;;;5132092;27;20035;-70
2021/10/13 13:31:17;;;;;;;8.90;1.58;;;16.40;79.50;;;;;;5113788;27;20027;-69
2021/10/13 13:33:44;;;;;;;7.18;1.50;;;16.50;79.10;;;;;;5123421;27;20107;-69
2021/10/13 13:36:16;;;;;;;10.57;1.30;;;16.40;79.00;;;;;;5097937;28;20066;-70
2021/10/13 13:38:42;;;;;;;14.82;1.70;;;16.40;79.00;;;;;;5121100;27;20070;-70
2021/10/13 13:41:07;;;;;;;7.03;1.38;;;16.40;78.20;;;;;;5129196;27;20063;-70
2021/10/13 13:43:34;;;;;;;7.60;1.40;;;16.50;78.00;;;;;;5110684;28;20028;-70
2021/10/13 13:46:00;;;;;;;11.40;1.63;;;16.40;78.30;;;;;;5124361;27;20033;-69
2021/10/13 13:48:28;;;;;;;10.05;2.00;;;16.40;77.80;;;;;;5112570;27;20027;-70
2021/10/13 13:50:56;;;;;;;8.25;1.52;;;16.40;77.80;;;;;;5118324;27;20070;-70
2021/10/13 13:53:23;;;;;;;14.38;1.30;;;16.50;78.10;;;;;;5108346;28;20027;-70
2021/10/13 13:55:48;;;;;;;6.55;1.60;;;16.40;78.20;;;;;;5120119;27;20027;-69
2021/10/13 13:58:14;;;;;;;15.77;1.70;;;16.50;78.60;;;;;;5129868;27;20355;-70
2021/10/13 14:00:40;;;;;;;9.02;1.40;;;16.50;78.40;;;;;;5111638;28;20030;-69
2021/10/13 14:03:06;;;;;;;6.13;1.60;;;16.50;78.80;;;;;;5112361;28;20020;-69